Pilar de la Horadada, Spain
Current Conditions -  °F | °C
As of 9:00 PM on Thursday 27 Nov 2014 (Local Time) from LELC Reporting Station
Clear Clear  
Wind Chill: 63°   Ceiling: Unl
Heat Index: 63°   Visibility: 6mi
Dew Point: 55°   Wind: 7mph
Humidity: 77%   Direction: 200°SSW
Pressure: 29.47"   Gusts: NA
Location:  37.87°N, 0.79°W
Report Text: LELC 272000Z 20006KT 170V230 CAVOK 17/13 Q0998 NOSIG
Loading
Personal Weather Stations






























Interactive Weather Map New forecast layout! Learn more

10-Day Weather Forecast

Advertisements
Track Severe Weather on mobile